createdAt,value
2023-03-06T00:00:41.326Z,98811.02
2023-03-06T00:03:08.182Z,98807.25
2023-03-06T00:05:35.202Z,98808.44
2023-03-06T00:08:02.160Z,98812.77
2023-03-06T00:10:37.080Z,98820.09
2023-03-06T00:13:11.213Z,98819.34
2023-03-06T00:15:40.022Z,98823.67
2023-03-06T00:18:06.923Z,98828.05
2023-03-06T00:20:41.030Z,98827.88
2023-03-06T00:23:09.456Z,98828.39
2023-03-06T00:25:41.827Z,98829.98
2023-03-06T00:28:09.877Z,98835.61
2023-03-06T00:30:37.462Z,98834.21
2023-03-06T00:33:05.243Z,98834.21
2023-03-06T00:35:33.692Z,98838.06
2023-03-06T00:38:00.373Z,98845.48
2023-03-06T00:40:27.309Z,98842.17
2023-03-06T00:42:54.627Z,98838.17
2023-03-06T00:45:25.328Z,98838.25
2023-03-06T00:47:52.075Z,98838.08
2023-03-06T00:50:18.876Z,98833.89
2023-03-06T00:52:46.429Z,98830.20
2023-03-06T00:55:13.059Z,98827.58
2023-03-06T00:57:40.882Z,98829.50
2023-03-06T01:00:08.082Z,98825.64
2023-03-06T01:02:35.457Z,98824.05
2023-03-06T01:05:03.266Z,98820.73
2023-03-06T01:07:36.329Z,98821.45
2023-03-06T01:10:05.617Z,98818.13
2023-03-06T01:12:33.877Z,98812.15
2023-03-06T01:15:01.198Z,98814.44
2023-03-06T01:17:28.973Z,98811.11
2023-03-06T01:19:56.852Z,98806.93
2023-03-06T01:22:23.597Z,98801.17
2023-03-06T01:24:50.489Z,98800.46
2023-03-06T01:27:17.130Z,98802.20
2023-03-06T01:29:44.097Z,98795.86
2023-03-06T01:32:11.103Z,98795.88
2023-03-06T01:34:38.950Z,98794.13
2023-03-06T01:37:05.625Z,98793.23
2023-03-06T01:39:33.501Z,98792.52
2023-03-06T01:42:00.514Z,98795.30
2023-03-06T01:44:27.693Z,98794.94
2023-03-06T01:46:54.431Z,98792.65
2023-03-06T01:49:28.052Z,98793.85
2023-03-06T01:52:09.221Z,98790.60
2023-03-06T01:54:44.286Z,98789.83
2023-03-06T01:57:13.153Z,98790.45
2023-03-06T01:59:40.164Z,98789.18
2023-03-06T02:02:08.073Z,98786.88
2023-03-06T02:04:36.125Z,98785.12
2023-03-06T02:07:05.669Z,98787.22
2023-03-06T02:09:34.631Z,98784.38
2023-03-06T02:12:02.637Z,98782.13
2023-03-06T02:14:29.913Z,98781.64
2023-03-06T02:17:03.613Z,98783.98
2023-03-06T02:19:33.893Z,98778.39
2023-03-06T02:22:00.649Z,98772.27
2023-03-06T02:25:02.729Z,98773.36
2023-03-06T02:27:30.176Z,98773.73
2023-03-06T02:29:57.342Z,98774.30
2023-03-06T02:32:24.182Z,98769.98
2023-03-06T02:34:55.924Z,98770.52
2023-03-06T02:37:23.744Z,98768.23
2023-03-06T02:40:09.400Z,98763.66
2023-03-06T02:42:36.943Z,98766.17
2023-03-06T02:45:04.303Z,98767.45
2023-03-06T02:47:31.339Z,98762.04
2023-03-06T02:49:59.707Z,98765.69
2023-03-06T02:52:26.451Z,98765.17
2023-03-06T02:54:53.303Z,98760.90
2023-03-06T02:57:20.240Z,98759.77
2023-03-06T02:59:46.937Z,98762.48
2023-03-06T03:02:14.236Z,98764.70
2023-03-06T03:04:41.608Z,98764.87
2023-03-06T03:07:08.900Z,98763.30
2023-03-06T03:09:36.676Z,98762.93
2023-03-06T03:12:08.782Z,98765.03
2023-03-06T03:14:37.351Z,98765.02
2023-03-06T03:17:04.189Z,98763.59
2023-03-06T03:19:30.902Z,98768.85
2023-03-06T03:21:57.570Z,98766.21
2023-03-06T03:24:25.466Z,98767.77
2023-03-06T03:26:52.239Z,98770.94
2023-03-06T03:29:19.862Z,98770.60
2023-03-06T03:31:47.757Z,98768.14
2023-03-06T03:34:14.600Z,98769.20
2023-03-06T03:36:41.893Z,98768.27
2023-03-06T03:39:09.646Z,98770.38
2023-03-06T03:41:36.857Z,98778.08
2023-03-06T03:44:05.592Z,98775.71
2023-03-06T03:46:36.410Z,98776.15
2023-03-06T03:49:04.117Z,98776.48
2023-03-06T03:51:31.442Z,98778.21
2023-03-06T03:53:58.391Z,98778.19
2023-03-06T03:56:27.337Z,98776.90
2023-03-06T03:59:04.381Z,98774.93
2023-03-06T04:01:39.150Z,98776.33
2023-03-06T04:04:07.674Z,98784.21
2023-03-06T04:06:34.803Z,98786.48
2023-03-06T04:09:04.022Z,98786.30
2023-03-06T04:11:30.956Z,98787.54
2023-03-06T04:13:57.798Z,98787.05
2023-03-06T04:16:24.737Z,98786.73
2023-03-06T04:18:51.719Z,98787.45
2023-03-06T04:21:24.086Z,98790.48
2023-03-06T04:23:50.988Z,98790.70
2023-03-06T04:26:17.854Z,98792.11
2023-03-06T04:28:46.765Z,98790.86
2023-03-06T04:31:17.386Z,98789.18
2023-03-06T04:33:44.332Z,98791.59
2023-03-06T04:36:16.628Z,98794.52
2023-03-06T04:38:43.648Z,98792.73
2023-03-06T04:41:11.410Z,98795.39
2023-03-06T04:43:39.606Z,98797.83
2023-03-06T04:46:06.727Z,98795.88
2023-03-06T04:48:36.745Z,98798.70
2023-03-06T04:51:03.783Z,98797.84
2023-03-06T04:53:32.428Z,98800.14
2023-03-06T04:55:59.451Z,98800.31
2023-03-06T04:58:27.830Z,98801.55
2023-03-06T05:00:54.719Z,98807.73
2023-03-06T05:03:21.656Z,98809.34
2023-03-06T05:05:49.053Z,98811.52
2023-03-06T05:08:16.087Z,98811.73
2023-03-06T05:10:44.084Z,98814.91
2023-03-06T05:13:11.700Z,98814.90
2023-03-06T05:15:41.886Z,98818.23
2023-03-06T05:18:09.785Z,98821.92
2023-03-06T05:20:36.844Z,98821.55
2023-03-06T05:23:08.433Z,98829.05
2023-03-06T05:25:41.332Z,98830.90
2023-03-06T05:28:08.324Z,98833.26
2023-03-06T05:30:35.471Z,98833.75
2023-03-06T05:33:05.144Z,98842.54
2023-03-06T05:35:32.709Z,98839.52
2023-03-06T05:38:02.126Z,98839.33
2023-03-06T05:40:30.683Z,98845.67
2023-03-06T05:42:59.766Z,98843.90
2023-03-06T05:45:28.292Z,98850.48
2023-03-06T05:47:57.735Z,98857.17
2023-03-06T05:50:28.789Z,98856.47
2023-03-06T05:52:59.765Z,98861.20
2023-03-06T05:55:28.871Z,98860.48
2023-03-06T05:57:58.834Z,98869.95
2023-03-06T06:00:27.948Z,98867.63
2023-03-06T06:02:56.584Z,98868.30
2023-03-06T06:05:26.765Z,98869.67
2023-03-06T06:07:56.197Z,98866.42
2023-03-06T06:10:25.179Z,98863.90
2023-03-06T06:12:53.597Z,98861.59
2023-03-06T06:15:22.809Z,98862.80
2023-03-06T06:17:52.956Z,98867.34
2023-03-06T06:20:21.819Z,98878.07
2023-03-06T06:22:51.848Z,98881.36
2023-03-06T06:25:21.843Z,98889.04
2023-03-06T06:27:50.991Z,98892.65
2023-03-06T06:30:20.110Z,98897.84
2023-03-06T06:32:49.893Z,98898.83
2023-03-06T06:35:19.053Z,98899.48
2023-03-06T06:46:53.350Z,98902.52
2023-03-06T06:49:05.398Z,98905.86
2023-03-06T06:51:33.449Z,98909.45
2023-03-06T06:54:00.505Z,98909.08
2023-03-06T06:56:27.560Z,98909.59
2023-03-06T06:59:15.389Z,98912.67
2023-03-06T07:01:44.754Z,98913.38
2023-03-06T07:04:13.055Z,98920.46
2023-03-06T07:06:41.021Z,98919.45
2023-03-06T07:09:08.196Z,98925.60
2023-03-06T07:11:35.940Z,98931.58
2023-03-06T07:14:02.737Z,98933.35
2023-03-06T07:16:29.854Z,98936.84
2023-03-06T07:18:56.915Z,98948.09
2023-03-06T07:21:24.127Z,98944.65
2023-03-06T07:23:51.113Z,98951.94
2023-03-06T07:26:18.770Z,98949.14
2023-03-06T07:28:52.601Z,98953.56
2023-03-06T07:31:21.819Z,98958.02
2023-03-06T07:33:49.746Z,98961.80
2023-03-06T07:36:16.691Z,98966.66
2023-03-06T07:38:43.643Z,98968.54
2023-03-06T07:41:13.039Z,98970.01
2023-03-06T07:43:40.915Z,98972.73
2023-03-06T07:46:08.195Z,98976.63
2023-03-06T07:48:36.252Z,98978.17
2023-03-06T07:51:10.043Z,98977.42
2023-03-06T07:53:36.840Z,98980.39
2023-03-06T07:56:08.546Z,98980.27
2023-03-06T07:58:37.482Z,98983.69
2023-03-06T08:02:13.916Z,98980.60
2023-03-06T08:04:42.501Z,98986.05
2023-03-06T08:07:11.125Z,98988.97
2023-03-06T08:09:39.740Z,98988.95
2023-03-06T08:12:08.766Z,98991.91
2023-03-06T08:14:36.888Z,98992.05
2023-03-06T08:17:09.319Z,98993.05
2023-03-06T08:19:37.511Z,98996.30
2023-03-06T08:22:06.288Z,98997.98
2023-03-06T08:24:36.558Z,98999.99
2023-03-06T08:27:04.816Z,99001.13
2023-03-06T08:29:40.337Z,99002.81
2023-03-06T08:32:11.838Z,99003.94
2023-03-06T08:34:41.390Z,99001.71
2023-03-06T08:37:10.674Z,99002.77
2023-03-06T08:39:39.076Z,98996.71
2023-03-06T08:42:07.655Z,98998.57
2023-03-06T08:44:38.185Z,99003.60
2023-03-06T08:47:06.462Z,99012.03
2023-03-06T08:49:36.131Z,99014.09
2023-03-06T08:52:04.688Z,99016.52
2023-03-06T08:54:35.450Z,99022.19
2023-03-06T08:57:03.976Z,99021.95
2023-03-06T08:59:32.703Z,99017.60
2023-03-06T09:02:01.736Z,99019.00
2023-03-06T09:04:38.028Z,99023.81
2023-03-06T09:07:07.950Z,99025.24
2023-03-06T09:09:36.154Z,99028.44
2023-03-06T09:12:05.010Z,99031.35
2023-03-06T09:14:33.317Z,99026.66
2023-03-06T09:17:01.381Z,99028.48
2023-03-06T09:19:29.895Z,99032.22
2023-03-06T09:22:00.625Z,99032.53
2023-03-06T09:24:33.849Z,99037.11
2023-03-06T09:27:02.272Z,99039.95
2023-03-06T09:29:30.671Z,99041.26
2023-03-06T09:31:59.428Z,99044.83
2023-03-06T09:34:28.218Z,99043.50
2023-03-06T09:37:03.211Z,99042.81
2023-03-06T09:39:31.433Z,99040.91
2023-03-06T09:41:59.710Z,99040.19
2023-03-06T09:44:29.653Z,99043.15
2023-03-06T09:47:07.328Z,99044.73
2023-03-06T09:49:58.266Z,99044.44
2023-03-06T09:52:30.022Z,99042.44
2023-03-06T09:54:59.597Z,99042.50
2023-03-06T09:57:38.228Z,99039.98
2023-03-06T10:00:15.404Z,99044.30
2023-03-06T10:02:50.819Z,99041.06
2023-03-06T10:05:25.111Z,99035.73
2023-03-06T10:08:26.116Z,99036.86
2023-03-06T10:28:46.862Z,99032.95
2023-03-06T10:31:28.076Z,99028.34
2023-03-06T10:33:58.773Z,99026.63
2023-03-06T10:36:27.965Z,99022.20
2023-03-06T10:38:57.581Z,99018.10
2023-03-06T10:41:28.555Z,99024.20
2023-03-06T10:43:59.866Z,99017.39
2023-03-06T10:46:36.232Z,99015.33
2023-03-06T10:49:25.428Z,99017.98
2023-03-06T10:52:12.571Z,99020.05
2023-03-06T10:54:45.218Z,99020.83
2023-03-06T10:57:32.454Z,99019.37
2023-03-06T11:00:23.234Z,99016.15
2023-03-06T11:03:16.655Z,99019.91
2023-03-06T11:07:59.321Z,99023.16
2023-03-06T11:10:28.936Z,99018.10
2023-03-06T11:13:06.530Z,99015.06
2023-03-06T11:15:41.628Z,99014.02
2023-03-06T11:18:10.590Z,99013.33
2023-03-06T11:20:51.479Z,99015.95
2023-03-06T11:23:43.272Z,99015.42
2023-03-06T11:26:26.400Z,99014.63
2023-03-06T11:29:19.277Z,99015.86
2023-03-06T11:31:56.542Z,99024.48
2023-03-06T11:34:42.230Z,99020.52
2023-03-06T11:37:25.347Z,99019.10
2023-03-06T11:40:09.084Z,99025.07
2023-03-06T11:42:41.068Z,99019.72
2023-03-06T11:45:34.852Z,99018.64
2023-03-06T11:48:17.642Z,99017.14
2023-03-06T11:50:53.414Z,99016.75
2023-03-06T11:53:35.969Z,99012.80
2023-03-06T11:56:10.208Z,99018.72
2023-03-06T11:59:07.132Z,99019.59
2023-03-06T12:01:41.931Z,99018.08
2023-03-06T12:04:44.393Z,99023.27
2023-03-06T12:07:16.154Z,99021.85
2023-03-06T12:10:20.885Z,99026.44
2023-03-06T12:13:13.738Z,99023.27
2023-03-06T12:16:11.289Z,99025.25
2023-03-06T12:18:43.120Z,99025.27
2023-03-06T12:21:20.562Z,99022.82
2023-03-06T12:24:00.749Z,99016.54
2023-03-06T12:26:54.388Z,99019.16
2023-03-06T12:30:12.532Z,99018.71
2023-03-06T12:32:41.155Z,99021.30
2023-03-06T12:35:17.452Z,99020.45
2023-03-06T12:38:04.580Z,99024.34
2023-03-06T12:40:56.544Z,99022.86
2023-03-06T12:43:46.937Z,99021.89
2023-03-06T12:46:28.228Z,99024.67
2023-03-06T12:49:26.323Z,99019.55
2023-03-06T12:51:58.912Z,99019.34
2023-03-06T12:54:31.559Z,99022.64
2023-03-06T12:56:59.863Z,99027.53
2023-03-06T12:59:34.564Z,99020.43
2023-03-06T13:02:21.336Z,99022.08
2023-03-06T13:04:55.703Z,99022.12
2023-03-06T13:07:28.205Z,99020.90
2023-03-06T13:10:24.819Z,99017.25
2023-03-06T13:13:02.003Z,99017.67
2023-03-06T13:15:36.763Z,99015.98
2023-03-06T13:18:24.333Z,99015.46
2023-03-06T13:20:57.686Z,99020.11
2023-03-06T13:23:32.187Z,99017.55
2023-03-06T13:26:02.300Z,99017.44
2023-03-06T13:28:50.337Z,99017.20
2023-03-06T13:31:36.548Z,99018.10
2023-03-06T13:34:25.812Z,99017.86
2023-03-06T13:37:17.540Z,99018.10
2023-03-06T13:39:55.248Z,99017.40
2023-03-06T13:42:31.931Z,99015.85
2023-03-06T13:45:35.028Z,99013.66
2023-03-06T13:48:24.948Z,99015.80
2023-03-06T13:50:52.246Z,99018.17
2023-03-06T13:53:45.854Z,99020.86
2023-03-06T13:56:53.381Z,99023.21
2023-03-06T13:59:25.184Z,99016.38
2023-03-06T14:02:19.378Z,99014.96
2023-03-06T14:04:54.469Z,99015.01
2023-03-06T14:07:37.675Z,99014.48
2023-03-06T14:10:34.118Z,99013.36
2023-03-06T14:13:07.776Z,99013.06
2023-03-06T14:15:47.665Z,99018.35
2023-03-06T14:18:23.975Z,99019.45
2023-03-06T14:21:02.821Z,99018.73
2023-03-06T14:23:35.933Z,99020.55
2023-03-06T14:26:07.253Z,99025.31
2023-03-06T14:28:36.159Z,99025.08
2023-03-06T14:31:38.459Z,99025.40
2023-03-06T14:34:30.712Z,99030.70
2023-03-06T14:37:05.674Z,99025.60
2023-03-06T14:39:43.768Z,99029.77
2023-03-06T14:42:22.066Z,99032.45
2023-03-06T14:45:17.801Z,99033.38
2023-03-06T14:47:53.291Z,99033.48
2023-03-06T14:50:23.319Z,99036.13
2023-03-06T14:52:55.821Z,99037.38
2023-03-06T14:55:26.050Z,99040.79
2023-03-06T14:58:01.152Z,99045.64
2023-03-06T15:00:35.885Z,99042.54
2023-03-06T15:03:06.100Z,99046.64
2023-03-06T15:05:34.998Z,99047.09
2023-03-06T15:08:04.574Z,99044.82
2023-03-06T15:10:35.959Z,99044.85
2023-03-06T15:13:25.229Z,99047.92
2023-03-06T15:16:05.931Z,99044.45
2023-03-06T15:18:44.005Z,99044.46
2023-03-06T15:21:20.756Z,99043.94
2023-03-06T15:23:50.556Z,99048.95
2023-03-06T15:26:29.211Z,99051.83
2023-03-06T15:29:08.940Z,99055.09
2023-03-06T15:31:42.465Z,99061.75
2023-03-06T15:34:15.648Z,99065.03
2023-03-06T15:36:49.250Z,99069.21
2023-03-06T15:39:28.085Z,99071.95
2023-03-06T15:42:18.322Z,99076.66
2023-03-06T15:44:54.736Z,99077.34
2023-03-06T15:47:23.152Z,99080.61
2023-03-06T15:49:54.673Z,99084.73
2023-03-06T15:52:23.189Z,99083.43
2023-03-06T16:01:18.934Z,99090.30
2023-03-06T16:04:03.333Z,99089.58
2023-03-06T16:06:31.662Z,99086.23
2023-03-06T16:08:59.974Z,99087.83
2023-03-06T16:11:41.999Z,99090.68
2023-03-06T16:14:21.435Z,99088.44
2023-03-06T16:16:51.395Z,99093.11
2023-03-06T16:19:26.238Z,99093.57
2023-03-06T16:21:56.284Z,99093.83
2023-03-06T16:24:26.337Z,99092.44
2023-03-06T16:26:55.284Z,99089.27
2023-03-06T16:29:25.579Z,99091.30
2023-03-06T16:31:55.439Z,99091.57
2023-03-06T16:34:24.105Z,99091.30
2023-03-06T16:36:53.797Z,99092.75
2023-03-06T16:39:22.930Z,99095.98
2023-03-06T16:41:55.287Z,99096.55
2023-03-06T16:44:23.983Z,99097.34
2023-03-06T16:46:52.146Z,99098.63
2023-03-06T16:49:24.146Z,99101.51
2023-03-06T16:51:52.878Z,99105.61
2023-03-06T16:54:23.389Z,99103.22
2023-03-06T16:56:51.815Z,99106.09
2023-03-06T16:59:25.036Z,99106.52
2023-03-06T17:01:54.489Z,99110.98
2023-03-06T17:04:22.825Z,99107.17
2023-03-06T17:06:53.554Z,99111.95
2023-03-06T17:09:21.914Z,99111.64
2023-03-06T17:11:50.369Z,99114.33
2023-03-06T17:14:19.701Z,99111.20
2023-03-06T17:16:48.358Z,99112.66
2023-03-06T17:19:16.762Z,99114.29
2023-03-06T17:21:46.763Z,99116.98
2023-03-06T17:24:15.624Z,99114.58
2023-03-06T17:26:44.551Z,99116.58
2023-03-06T17:29:12.847Z,99113.48
2023-03-06T17:31:41.025Z,99113.36
2023-03-06T17:34:09.450Z,99109.89
2023-03-06T17:36:38.162Z,99111.71
2023-03-06T17:39:06.360Z,99110.70
2023-03-06T17:41:35.040Z,99111.77
2023-03-06T17:44:03.283Z,99111.80
2023-03-06T17:46:32.500Z,99115.50
2023-03-06T17:49:01.032Z,99111.29
2023-03-06T17:51:29.573Z,99113.74
2023-03-06T17:53:58.461Z,99112.34
2023-03-06T17:56:31.456Z,99116.38
2023-03-06T17:59:00.679Z,99114.80
2023-03-06T18:01:30.332Z,99117.79
2023-03-06T18:04:03.976Z,99121.65
2023-03-06T18:06:33.643Z,99121.15
2023-03-06T18:09:05.431Z,99121.68
2023-03-06T18:11:33.978Z,99126.45
2023-03-06T18:14:05.280Z,99122.07
2023-03-06T18:16:53.521Z,99124.73
2023-03-06T18:19:22.134Z,99127.20
2023-03-06T18:21:50.273Z,99128.98
2023-03-06T18:24:18.658Z,99126.34
2023-03-06T18:26:47.856Z,99127.24
2023-03-06T18:29:16.352Z,99130.59
2023-03-06T18:31:47.101Z,99133.24
2023-03-06T18:34:15.565Z,99127.46
2023-03-06T18:36:47.154Z,99133.60
2023-03-06T18:39:16.107Z,99131.16
2023-03-06T18:41:44.310Z,99128.52
2023-03-06T18:44:14.331Z,99128.91
2023-03-06T18:46:42.778Z,99133.99
2023-03-06T18:49:12.296Z,99136.64
2023-03-06T18:51:40.891Z,99134.02
2023-03-06T18:54:10.281Z,99134.73
2023-03-06T18:56:39.931Z,99141.05
2023-03-06T18:59:08.365Z,99140.54
2023-03-06T19:01:37.859Z,99136.16
2023-03-06T19:04:06.388Z,99141.44
2023-03-06T19:06:38.095Z,99140.05
2023-03-06T19:09:06.498Z,99145.85
2023-03-06T19:11:39.101Z,99144.29
2023-03-06T19:14:07.910Z,99144.46
2023-03-06T19:16:36.305Z,99143.75
2023-03-06T19:19:07.230Z,99142.35
2023-03-06T19:21:35.839Z,99140.95
2023-03-06T19:24:04.975Z,99144.29
2023-03-06T19:26:33.370Z,99145.52
2023-03-06T19:29:01.566Z,99140.27
2023-03-06T19:31:30.361Z,99141.50
2023-03-06T19:33:59.222Z,99143.44
2023-03-06T19:36:33.462Z,99143.79
2023-03-06T19:39:03.871Z,99138.18
2023-03-06T19:41:32.156Z,99139.59
2023-03-06T19:44:02.523Z,99139.06
2023-03-06T19:46:32.100Z,99133.80
2023-03-06T19:49:02.645Z,99129.05
2023-03-06T19:51:31.172Z,99127.13
2023-03-06T19:54:02.982Z,99126.25
2023-03-06T19:56:33.898Z,99120.80
2023-03-06T19:59:02.125Z,99125.20
2023-03-06T20:01:30.996Z,99127.99
2023-03-06T20:04:00.131Z,99129.41
2023-03-06T20:06:30.109Z,99129.93
2023-03-06T20:09:01.576Z,99127.46
2023-03-06T20:11:32.686Z,99130.11
2023-03-06T20:14:02.797Z,99122.38
2023-03-06T20:16:31.460Z,99124.66
2023-03-06T20:19:10.816Z,99124.31
2023-03-06T20:21:41.392Z,99119.20
2023-03-06T20:24:16.797Z,99114.64
2023-03-06T20:26:46.197Z,99111.86
2023-03-06T20:29:14.472Z,99105.03
2023-03-06T20:31:42.650Z,99105.04
2023-03-06T20:34:14.607Z,99102.05
2023-03-06T20:36:43.125Z,99099.96
2023-03-06T20:39:13.526Z,99105.77
2023-03-06T20:41:43.332Z,99111.20
2023-03-06T20:44:14.385Z,99109.42
2023-03-06T20:46:43.344Z,99107.33
2023-03-06T20:49:16.278Z,99104.14
2023-03-06T20:51:45.399Z,99101.68
2023-03-06T20:54:15.022Z,99095.35
2023-03-06T20:56:48.072Z,99091.32
2023-03-06T20:59:16.860Z,99091.33
2023-03-06T21:01:45.788Z,99086.95
2023-03-06T21:04:14.385Z,99082.57
2023-03-06T21:06:46.590Z,99081.52
2023-03-06T21:09:16.311Z,99076.61
2023-03-06T21:11:45.238Z,99078.41
2023-03-06T21:14:15.132Z,99070.02
2023-03-06T21:16:44.220Z,99076.69
2023-03-06T21:19:22.045Z,99073.91
2023-03-06T21:21:50.858Z,99071.96
2023-03-06T21:24:21.219Z,99067.77
2023-03-06T21:26:52.280Z,99063.90
2023-03-06T21:29:21.488Z,99063.91
2023-03-06T21:31:55.295Z,99059.38
2023-03-06T21:34:24.075Z,99057.27
2023-03-06T21:36:52.351Z,99055.71
2023-03-06T21:39:21.269Z,99053.79
2023-03-06T21:41:49.570Z,99057.98
2023-03-06T21:44:18.120Z,99055.34
2023-03-06T21:46:46.393Z,99052.70
2023-03-06T21:49:15.412Z,99049.20
2023-03-06T21:51:43.828Z,99042.36
2023-03-06T21:54:13.180Z,99046.23
2023-03-06T21:56:42.981Z,99045.70
2023-03-06T21:59:11.148Z,99043.25
2023-03-06T22:01:39.547Z,99041.33
2023-03-06T22:04:08.523Z,99042.73
2023-03-06T22:06:38.035Z,99044.65
2023-03-06T22:09:06.726Z,99039.21
2023-03-06T22:11:37.386Z,99040.43
2023-03-06T22:14:06.562Z,99040.02
2023-03-06T22:16:38.828Z,99042.61
2023-03-06T22:19:08.139Z,99044.64
2023-03-06T22:21:36.554Z,99042.99
2023-03-06T22:24:06.858Z,99040.30
2023-03-06T22:26:35.109Z,99037.81
2023-03-06T22:29:07.702Z,99043.91
2023-03-06T22:31:39.274Z,99037.89
2023-03-06T22:34:09.281Z,99038.55
2023-03-06T22:36:57.419Z,99035.55
2023-03-06T22:39:26.922Z,99032.21
2023-03-06T22:41:56.018Z,99031.90
2023-03-06T22:44:24.175Z,99029.11
2023-03-06T22:46:53.686Z,99026.81
2023-03-06T22:49:21.962Z,99023.09
2023-03-06T22:51:50.136Z,99026.02
2023-03-06T22:54:20.957Z,99021.79
2023-03-06T22:56:50.209Z,99023.89
2023-03-06T22:59:19.086Z,99020.54
2023-03-06T23:01:48.680Z,99019.62
2023-03-06T23:04:17.210Z,99020.48
2023-03-06T23:06:52.397Z,99017.12
2023-03-06T23:09:21.913Z,99016.05
2023-03-06T23:12:11.716Z,99013.74
2023-03-06T23:14:59.758Z,99009.30
2023-03-06T23:17:46.890Z,99004.17
2023-03-06T23:20:34.688Z,98997.13
2023-03-06T23:26:01.976Z,98996.71
2023-03-06T23:28:30.859Z,98991.28
2023-03-06T23:30:59.762Z,98985.63
2023-03-06T23:33:28.745Z,98983.98
2023-03-06T23:36:04.046Z,98977.89
2023-03-06T23:38:32.469Z,98975.52
2023-03-06T23:41:04.945Z,98970.77
2023-03-06T23:43:33.939Z,98966.33
2023-03-06T23:46:03.071Z,98961.73
2023-03-06T23:48:34.596Z,98966.60
2023-03-06T23:51:11.429Z,98961.48
2023-03-06T23:53:41.905Z,98962.50
2023-03-06T23:56:10.128Z,98957.73
2023-03-06T23:58:39.489Z,98954.59
